This is the latest recevied weather packets stored in our database for station/object W6ORV. If no packets are shown the sender has not sent any weather packets the latest 10 day(s).
| Time | Temp. | Humidity | Pressure | Rain* | Wind** | Luminosity | Snow |
|---|---|---|---|---|---|---|---|
| 1777764060 | 21.67° C | 56% | 4295.1 hPa | 0 mm | - | 535 W/m² | - |
| 1777763455 | 21.67° C | 56% | 4295.3 hPa | 0 mm | - | 557 W/m² | - |
| 1777761637 | 21.11° C | 54% | 4295.7 hPa | 0 mm | - | 598 W/m² | - |
| 1777761334 | 22.22° C | 55% | 4295.9 hPa | 0 mm | - | 623 W/m² | - |
| 1777761033 | 22.78° C | 52% | 4295.9 hPa | 0 mm | - | 651 W/m² | - |
| 1777760729 | 22.22° C | 54% | 4295.9 hPa | 0 mm | - | 649 W/m² | - |
| 1777760426 | 22.78° C | 55% | 4296.1 hPa | 0 mm | - | 658 W/m² | - |
| 1777760121 | 22.78° C | 57% | 4295.9 hPa | 0 mm | - | 642 W/m² | - |
| 1777759819 | 22.78° C | 56% | 4296 hPa | 0 mm | - | 684 W/m² | - |
| 1777759514 | 22.22° C | 57% | 4296.2 hPa | 0 mm | - | 705 W/m² | - |
| 1777758909 | 22.78° C | 58% | 4296.3 hPa | 0 mm | - | 690 W/m² | - |
| 1777757696 | 21.67° C | 61% | 4296.6 hPa | 0 mm | - | 715 W/m² | - |
| 1777757394 | 22.78° C | 59% | 4296.5 hPa | 0 mm | - | 727 W/m² | - |
| 1777757093 | 22.78° C | 57% | 4296.6 hPa | 0 mm | - | 724 W/m² | - |
| 1777756790 | 22.22° C | 59% | 4297 hPa | 0 mm | - | 735 W/m² | - |
| 1777756486 | 21.67° C | 61% | 4297 hPa | 0 mm | - | 732 W/m² | - |
| 1777756183 | 22.22° C | 59% | 4296.9 hPa | 0 mm | - | 718 W/m² | - |
| 1777755880 | 21.67° C | 60% | 4297 hPa | 0 mm | - | 746 W/m² | - |
| 1777755577 | 21.67° C | 62% | 4297.1 hPa | 0 mm | - | 723 W/m² | - |
| 1777755273 | 21.67° C | 61% | 4296.8 hPa | 0 mm | - | 707 W/m² | - |
| 1777754971 | 21.11° C | 64% | 4297.1 hPa | 0 mm | - | 693 W/m² | - |
| 1777754063 | 20.56° C | 65% | 4297.4 hPa | 0 mm | - | 593 W/m² | - |
| 1777753758 | 20° C | 66% | 4297.7 hPa | 0 mm | - | 742 W/m² | - |
| 1777753455 | 20.56° C | 64% | 4297.5 hPa | 0 mm | - | 751 W/m² | - |
| 1777753154 | 20.56° C | 65% | 4297.5 hPa | 0 mm | - | 767 W/m² | - |
* Rain latest hour (hover to see other rain measurements)
** Current wind speed in m/s (hover to see current wind gust speed)